sensor_id;sensor_type;location;lat;lon;timestamp;pressure;altitude;pressure_sealevel;temperature;humidity
48824;BME280;34640;53.590;10.054;2022-11-15T00:01:27;100673.78;;;5.89;100.00
48824;BME280;34640;53.590;10.054;2022-11-15T00:04:01;100673.66;;;5.87;100.00
48824;BME280;34640;53.590;10.054;2022-11-15T00:06:35;100669.41;;;5.88;100.00
48824;BME280;34640;53.590;10.054;2022-11-15T00:09:10;100676.25;;;5.87;100.00
48824;BME280;34640;53.590;10.054;2022-11-15T00:11:43;100671.88;;;5.86;100.00
48824;BME280;34640;53.590;10.054;2022-11-15T00:14:17;100662.28;;;5.85;100.00
48824;BME280;34640;53.590;10.054;2022-11-15T00:16:51;100669.28;;;5.86;100.00
48824;BME280;34640;53.590;10.054;2022-11-15T00:19:24;100665.53;;;5.82;100.00
48824;BME280;34640;53.590;10.054;2022-11-15T00:21:58;100663.97;;;5.84;100.00
48824;BME280;34640;53.590;10.054;2022-11-15T00:24:33;100663.50;;;5.78;100.00
48824;BME280;34640;53.590;10.054;2022-11-15T00:27:07;100669.56;;;5.79;100.00
48824;BME280;34640;53.590;10.054;2022-11-15T00:29:40;100663.63;;;5.80;100.00
48824;BME280;34640;53.590;10.054;2022-11-15T00:32:15;100675.97;;;5.84;100.00
48824;BME280;34640;53.590;10.054;2022-11-15T00:34:49;100679.22;;;5.92;100.00
48824;BME280;34640;53.590;10.054;2022-11-15T00:37:22;100676.31;;;5.99;100.00
48824;BME280;34640;53.590;10.054;2022-11-15T00:39:58;100681.63;;;6.12;100.00
48824;BME280;34640;53.590;10.054;2022-11-15T00:42:31;100673.09;;;6.13;100.00
48824;BME280;34640;53.590;10.054;2022-11-15T00:45:06;100674.22;;;6.17;100.00
48824;BME280;34640;53.590;10.054;2022-11-15T00:47:39;100672.31;;;6.14;100.00
48824;BME280;34640;53.590;10.054;2022-11-15T00:50:13;100673.88;;;6.12;100.00
48824;BME280;34640;53.590;10.054;2022-11-15T00:52:47;100668.59;;;6.10;100.00
48824;BME280;34640;53.590;10.054;2022-11-15T00:55:22;100673.09;;;6.13;100.00
48824;BME280;34640;53.590;10.054;2022-11-15T00:57:56;100674.00;;;6.13;100.00
48824;BME280;34640;53.590;10.054;2022-11-15T01:00:29;100671.41;;;6.13;100.00
48824;BME280;34640;53.590;10.054;2022-11-15T01:03:03;100679.16;;;6.13;100.00
48824;BME280;34640;53.590;10.054;2022-11-15T01:05:37;100675.44;;;6.22;100.00
48824;BME280;34640;53.590;10.054;2022-11-15T01:08:12;100672.78;;;6.32;100.00
48824;BME280;34640;53.590;10.054;2022-11-15T01:10:47;100664.25;;;6.33;100.00
48824;BME280;34640;53.590;10.054;2022-11-15T01:13:21;100656.59;;;6.34;100.00
48824;BME280;34640;53.590;10.054;2022-11-15T01:15:54;100667.94;;;6.36;100.00
48824;BME280;34640;53.590;10.054;2022-11-15T01:18:28;100660.41;;;6.39;100.00
48824;BME280;34640;53.590;10.054;2022-11-15T01:21:05;100662.09;;;6.39;100.00
48824;BME280;34640;53.590;10.054;2022-11-15T01:23:39;100655.81;;;6.35;100.00
48824;BME280;34640;53.590;10.054;2022-11-15T01:26:15;100657.28;;;6.32;100.00
48824;BME280;34640;53.590;10.054;2022-11-15T01:28:49;100654.56;;;6.30;100.00
48824;BME280;34640;53.590;10.054;2022-11-15T01:31:23;100650.03;;;6.28;100.00
48824;BME280;34640;53.590;10.054;2022-11-15T01:33:56;100646.44;;;6.26;100.00
48824;BME280;34640;53.590;10.054;2022-11-15T01:36:30;100657.94;;;6.29;100.00
48824;BME280;34640;53.590;10.054;2022-11-15T01:39:04;100648.34;;;6.28;100.00
48824;BME280;34640;53.590;10.054;2022-11-15T01:41:39;100639.38;;;6.23;100.00
48824;BME280;34640;53.590;10.054;2022-11-15T01:44:36;100639.16;;;6.20;100.00
48824;BME280;34640;53.590;10.054;2022-11-15T01:47:13;100638.03;;;6.17;100.00
48824;BME280;34640;53.590;10.054;2022-11-15T01:49:53;100636.91;;;6.13;100.00
48824;BME280;34640;53.590;10.054;2022-11-15T01:52:29;100642.50;;;6.07;100.00
48824;BME280;34640;53.590;10.054;2022-11-15T01:55:06;100650.28;;;6.07;100.00
48824;BME280;34640;53.590;10.054;2022-11-15T01:57:44;100646.00;;;6.08;100.00
48824;BME280;34640;53.590;10.054;2022-11-15T02:00:20;100631.25;;;6.07;100.00
48824;BME280;34640;53.590;10.054;2022-11-15T02:02:53;100622.38;;;6.03;100.00
48824;BME280;34640;53.590;10.054;2022-11-15T02:05:28;100614.16;;;5.97;100.00
48824;BME280;34640;53.590;10.054;2022-11-15T02:08:04;100614.16;;;5.97;100.00
48824;BME280;34640;53.590;10.054;2022-11-15T02:10:38;100613.25;;;5.97;100.00
48824;BME280;34640;53.590;10.054;2022-11-15T02:13:13;100611.56;;;5.97;100.00
48824;BME280;34640;53.590;10.054;2022-11-15T02:15:53;100609.78;;;5.96;100.00
48824;BME280;34640;53.590;10.054;2022-11-15T02:18:37;100613.03;;;5.94;100.00
48824;BME280;34640;53.590;10.054;2022-11-15T02:21:22;100610.44;;;5.94;100.00
48824;BME280;34640;53.590;10.054;2022-11-15T02:24:41;100617.06;;;5.90;100.00
48824;BME280;34640;53.590;10.054;2022-11-15T02:27:32;100619.66;;;5.90;100.00
48824;BME280;34640;53.590;10.054;2022-11-15T02:30:20;100618.88;;;5.91;100.00
48824;BME280;34640;53.590;10.054;2022-11-15T02:32:57;100612.81;;;5.91;100.00
48824;BME280;34640;53.590;10.054;2022-11-15T02:35:37;100602.22;;;5.88;100.00
48824;BME280;34640;53.590;10.054;2022-11-15T02:38:21;100603.78;;;5.86;100.00
48824;BME280;34640;53.590;10.054;2022-11-15T02:41:02;100596.78;;;5.84;100.00
48824;BME280;34640;53.590;10.054;2022-11-15T02:43:40;100589.81;;;5.83;100.00
48824;BME280;34640;53.590;10.054;2022-11-15T02:46:40;100590.19;;;5.88;100.00
48824;BME280;34640;53.590;10.054;2022-11-15T02:49:34;100587.09;;;5.92;100.00
48824;BME280;34640;53.590;10.054;2022-11-15T02:52:08;100592.25;;;5.92;100.00
48824;BME280;34640;53.590;10.054;2022-11-15T02:54:41;100587.19;;;5.94;100.00
48824;BME280;34640;53.590;10.054;2022-11-15T02:57:17;100588.31;;;5.97;100.00
48824;BME280;34640;53.590;10.054;2022-11-15T03:00:03;100595.41;;;6.00;100.00
48824;BME280;34640;53.590;10.054;2022-11-15T03:02:53;100583.16;;;5.97;100.00
48824;BME280;34640;53.590;10.054;2022-11-15T03:05:35;100578.19;;;6.00;100.00
48824;BME280;34640;53.590;10.054;2022-11-15T03:08:14;100585.84;;;5.99;100.00
48824;BME280;34640;53.590;10.054;2022-11-15T03:10:57;100586.19;;;6.03;100.00
48824;BME280;34640;53.590;10.054;2022-11-15T03:13:38;100589.00;;;6.06;100.00
48824;BME280;34640;53.590;10.054;2022-11-15T03:16:20;100584.72;;;6.07;100.00
48824;BME280;34640;53.590;10.054;2022-11-15T03:19:02;100589.78;;;6.05;100.00
48824;BME280;34640;53.590;10.054;2022-11-15T03:21:39;100584.50;;;6.04;100.00
48824;BME280;34640;53.590;10.054;2022-11-15T03:24:14;100588.88;;;6.05;100.00
48824;BME280;34640;53.590;10.054;2022-11-15T03:26:57;100586.06;;;6.02;100.00
48824;BME280;34640;53.590;10.054;2022-11-15T03:29:35;100584.25;;;6.01;100.00
48824;BME280;34640;53.590;10.054;2022-11-15T03:32:12;100587.97;;;6.04;100.00
48824;BME280;34640;53.590;10.054;2022-11-15T03:34:52;100592.34;;;6.05;100.00
48824;BME280;34640;53.590;10.054;2022-11-15T03:37:33;100588.34;;;6.09;100.00
48824;BME280;34640;53.590;10.054;2022-11-15T03:40:09;100580.47;;;6.07;100.00
48824;BME280;34640;53.590;10.054;2022-11-15T03:42:46;100577.53;;;6.03;100.00
48824;BME280;34640;53.590;10.054;2022-11-15T03:45:27;100582.69;;;6.03;100.00
48824;BME280;34640;53.590;10.054;2022-11-15T03:48:07;100578.44;;;6.03;100.00
48824;BME280;34640;53.590;10.054;2022-11-15T03:50:45;100566.41;;;6.04;100.00
48824;BME280;34640;53.590;10.054;2022-11-15T03:53:20;100563.28;;;6.08;100.00
48824;BME280;34640;53.590;10.054;2022-11-15T03:55:54;100566.19;;;6.12;100.00
48824;BME280;34640;53.590;10.054;2022-11-15T03:58:27;100567.31;;;6.16;100.00
48824;BME280;34640;53.590;10.054;2022-11-15T04:01:01;100582.84;;;6.16;100.00
48824;BME280;34640;53.590;10.054;2022-11-15T04:03:35;100571.69;;;6.17;100.00
48824;BME280;34640;53.590;10.054;2022-11-15T04:06:10;100576.19;;;6.20;100.00
48824;BME280;34640;53.590;10.054;2022-11-15T04:08:43;100585.28;;;6.26;100.00
48824;BME280;34640;53.590;10.054;2022-11-15T04:11:17;100578.31;;;6.25;100.00
48824;BME280;34640;53.590;10.054;2022-11-15T04:13:50;100575.53;;;6.22;100.00
48824;BME280;34640;53.590;10.054;2022-11-15T04:16:24;100570.00;;;6.18;100.00
48824;BME280;34640;53.590;10.054;2022-11-15T04:18:58;100567.31;;;6.16;100.00
48824;BME280;34640;53.590;10.054;2022-11-15T04:21:47;100574.97;;;6.15;100.00
48824;BME280;34640;53.590;10.054;2022-11-15T04:24:38;100570.69;;;6.15;100.00
48824;BME280;34640;53.590;10.054;2022-11-15T04:27:11;100571.38;;;6.12;100.00
48824;BME280;34640;53.590;10.054;2022-11-15T04:29:46;100573.84;;;6.11;100.00
48824;BME280;34640;53.590;10.054;2022-11-15T04:32:20;100583.41;;;6.12;100.00
48824;BME280;34640;53.590;10.054;2022-11-15T04:34:53;100588.78;;;6.15;100.00
48824;BME280;34640;53.590;10.054;2022-11-15T04:37:28;100578.00;;;6.21;100.00
48824;BME280;34640;53.590;10.054;2022-11-15T04:40:01;100583.50;;;6.25;100.00
48824;BME280;34640;53.590;10.054;2022-11-15T04:42:35;100584.06;;;6.21;100.00
48824;BME280;34640;53.590;10.054;2022-11-15T04:45:09;100584.84;;;6.20;100.00
48824;BME280;34640;53.590;10.054;2022-11-15T04:47:43;100584.06;;;6.21;100.00
48824;BME280;34640;53.590;10.054;2022-11-15T04:50:18;100590.13;;;6.22;100.00
48824;BME280;34640;53.590;10.054;2022-11-15T04:52:54;100584.97;;;6.22;100.00
48824;BME280;34640;53.590;10.054;2022-11-15T04:55:28;100593.06;;;6.26;100.00
48824;BME280;34640;53.590;10.054;2022-11-15T04:58:02;100586.56;;;6.31;100.00
48824;BME280;34640;53.590;10.054;2022-11-15T05:00:36;100580.94;;;6.37;100.00
48824;BME280;34640;53.590;10.054;2022-11-15T05:03:09;100575.41;;;6.44;100.00
48824;BME280;34640;53.590;10.054;2022-11-15T05:06:01;100577.78;;;6.41;100.00
48824;BME280;34640;53.590;10.054;2022-11-15T05:08:37;100574.41;;;6.42;100.00
48824;BME280;34640;53.590;10.054;2022-11-15T05:11:10;100576.88;;;6.40;100.00
48824;BME280;34640;53.590;10.054;2022-11-15T05:13:44;100572.81;;;6.44;100.00
48824;BME280;34640;53.590;10.054;2022-11-15T05:16:17;100576.31;;;6.44;100.00
48824;BME280;34640;53.590;10.054;2022-11-15T05:18:52;100573.13;;;6.49;100.00
48824;BME280;34640;53.590;10.054;2022-11-15T05:21:25;100580.25;;;6.51;100.00
48824;BME280;34640;53.590;10.054;2022-11-15T05:24:01;100578.78;;;6.55;100.00
48824;BME280;34640;53.590;10.054;2022-11-15T05:26:35;100567.88;;;6.59;100.00
48824;BME280;34640;53.590;10.054;2022-11-15T05:29:09;100558.72;;;6.64;100.00
48824;BME280;34640;53.590;10.054;2022-11-15T05:31:43;100561.31;;;6.64;100.00
48824;BME280;34640;53.590;10.054;2022-11-15T05:34:18;100564.34;;;6.70;100.00
48824;BME280;34640;53.590;10.054;2022-11-15T05:36:53;100562.91;;;6.73;100.00
48824;BME280;34640;53.590;10.054;2022-11-15T05:39:28;100564.81;;;6.76;100.00
48824;BME280;34640;53.590;10.054;2022-11-15T05:42:07;100570.88;;;6.77;100.00
48824;BME280;34640;53.590;10.054;2022-11-15T05:44:43;100579.22;;;6.72;100.00
48824;BME280;34640;53.590;10.054;2022-11-15T05:47:20;100570.53;;;6.72;100.00
48824;BME280;34640;53.590;10.054;2022-11-15T05:49:56;100566.50;;;6.76;100.00
48824;BME280;34640;53.590;10.054;2022-11-15T05:52:33;100569.28;;;6.79;100.00
48824;BME280;34640;53.590;10.054;2022-11-15T05:55:10;100572.09;;;6.82;100.00
48824;BME280;34640;53.590;10.054;2022-11-15T05:57:44;100568.47;;;6.91;100.00
48824;BME280;34640;53.590;10.054;2022-11-15T06:00:19;100573.63;;;6.91;100.00
48824;BME280;34640;53.590;10.054;2022-11-15T06:02:52;100574.09;;;6.86;100.00
48824;BME280;34640;53.590;10.054;2022-11-15T06:05:26;100578.69;;;6.90;100.00
48824;BME280;34640;53.590;10.054;2022-11-15T06:07:59;100571.41;;;6.84;100.00
48824;BME280;34640;53.590;10.054;2022-11-15T06:10:34;100576.78;;;6.87;100.00
48824;BME280;34640;53.590;10.054;2022-11-15T06:13:08;100575.22;;;6.89;100.00
48824;BME280;34640;53.590;10.054;2022-11-15T06:15:42;100578.91;;;6.93;100.00
48824;BME280;34640;53.590;10.054;2022-11-15T06:18:16;100579.59;;;6.90;100.00
48824;BME280;34640;53.590;10.054;2022-11-15T06:20:50;100584.34;;;6.96;100.00
48824;BME280;34640;53.590;10.054;2022-11-15T06:23:23;100592.84;;;7.07;100.00
48824;BME280;34640;53.590;10.054;2022-11-15T06:25:59;100587.56;;;7.05;100.00
48824;BME280;34640;53.590;10.054;2022-11-15T06:28:33;100585.97;;;7.07;100.00
48824;BME280;34640;53.590;10.054;2022-11-15T06:31:09;100583.38;;;7.07;100.00
48824;BME280;34640;53.590;10.054;2022-11-15T06:33:43;100589.56;;;7.09;100.00
48824;BME280;34640;53.590;10.054;2022-11-15T06:36:18;100592.38;;;7.12;100.00
48824;BME280;34640;53.590;10.054;2022-11-15T06:38:52;100592.56;;;7.15;100.00
48824;BME280;34640;53.590;10.054;2022-11-15T06:41:27;100586.63;;;7.16;100.00
48824;BME280;34640;53.590;10.054;2022-11-15T06:44:00;100592.25;;;7.22;100.00
48824;BME280;34640;53.590;10.054;2022-11-15T06:46:34;100593.25;;;7.24;100.00
48824;BME280;34640;53.590;10.054;2022-11-15T06:49:08;100593.56;;;7.29;100.00
48824;BME280;34640;53.590;10.054;2022-11-15T06:51:42;100596.84;;;7.26;100.00
48824;BME280;34640;53.590;10.054;2022-11-15T06:54:15;100600.31;;;7.27;100.00
48824;BME280;34640;53.590;10.054;2022-11-15T06:56:50;100601.63;;;7.33;100.00
48824;BME280;34640;53.590;10.054;2022-11-15T06:59:24;100604.22;;;7.33;100.00
48824;BME280;34640;53.590;10.054;2022-11-15T07:01:58;100603.00;;;7.40;100.00
48824;BME280;34640;53.590;10.054;2022-11-15T07:04:31;100603.78;;;7.39;100.00
48824;BME280;34640;53.590;10.054;2022-11-15T07:07:05;100599.72;;;7.43;100.00
48824;BME280;34640;53.590;10.054;2022-11-15T07:09:39;100604.31;;;7.47;100.00
48824;BME280;34640;53.590;10.054;2022-11-15T07:12:14;100608.69;;;7.48;100.00
48824;BME280;34640;53.590;10.054;2022-11-15T07:14:47;100613.28;;;7.52;100.00
48824;BME280;34640;53.590;10.054;2022-11-15T07:17:21;100614.97;;;7.51;100.00
48824;BME280;34640;53.590;10.054;2022-11-15T07:19:55;100623.34;;;7.47;100.00
48824;BME280;34640;53.590;10.054;2022-11-15T07:22:28;100624.53;;;7.52;100.00
48824;BME280;34640;53.590;10.054;2022-11-15T07:25:02;100629.84;;;7.54;100.00
48824;BME280;34640;53.590;10.054;2022-11-15T07:27:38;100617.88;;;7.56;100.00
48824;BME280;34640;53.590;10.054;2022-11-15T07:30:12;100613.84;;;7.59;100.00
48824;BME280;34640;53.590;10.054;2022-11-15T07:32:47;100623.81;;;7.66;100.00
48824;BME280;34640;53.590;10.054;2022-11-15T07:35:21;100618.63;;;7.66;100.00
48824;BME280;34640;53.590;10.054;2022-11-15T07:37:56;100630.59;;;7.64;100.00
48824;BME280;34640;53.590;10.054;2022-11-15T07:40:31;100628.31;;;7.69;100.00
48824;BME280;34640;53.590;10.054;2022-11-15T07:43:07;100626.50;;;7.68;100.00
48824;BME280;34640;53.590;10.054;2022-11-15T07:45:42;100625.81;;;7.71;100.00
48824;BME280;34640;53.590;10.054;2022-11-15T07:48:16;100629.63;;;7.76;100.00
48824;BME280;34640;53.590;10.054;2022-11-15T07:50:50;100628.13;;;7.79;100.00
48824;BME280;34640;53.590;10.054;2022-11-15T07:53:24;100628.13;;;7.79;100.00
48824;BME280;34640;53.590;10.054;2022-11-15T07:55:57;100623.09;;;7.81;100.00
48824;BME280;34640;53.590;10.054;2022-11-15T07:58:33;100624.97;;;7.83;100.00
48824;BME280;34640;53.590;10.054;2022-11-15T08:01:08;100615.00;;;7.89;100.00
48824;BME280;34640;53.590;10.054;2022-11-15T08:03:43;100624.59;;;7.90;100.00
48824;BME280;34640;53.590;10.054;2022-11-15T08:06:16;100612.81;;;7.95;100.00
48824;BME280;34640;53.590;10.054;2022-11-15T08:08:50;100619.50;;;7.92;100.00
48824;BME280;34640;53.590;10.054;2022-11-15T08:11:23;100620.31;;;7.91;100.00
48824;BME280;34640;53.590;10.054;2022-11-15T08:13:59;100618.72;;;7.93;100.00
48824;BME280;34640;53.590;10.054;2022-11-15T08:16:32;100615.81;;;8.02;100.00
48824;BME280;34640;53.590;10.054;2022-11-15T08:19:06;100625.69;;;7.94;100.00
48824;BME280;34640;53.590;10.054;2022-11-15T08:21:40;100621.09;;;7.90;100.00
48824;BME280;34640;53.590;10.054;2022-11-15T08:24:14;100616.41;;;7.97;100.00
48824;BME280;34640;53.590;10.054;2022-11-15T08:26:47;100611.13;;;7.96;100.00
48824;BME280;34640;53.590;10.054;2022-11-15T08:29:23;100606.94;;;7.98;100.00
48824;BME280;34640;53.590;10.054;2022-11-15T08:31:56;100615.13;;;7.91;100.00
48824;BME280;34640;53.590;10.054;2022-11-15T08:34:30;100613.22;;;7.88;100.00
48824;BME280;34640;53.590;10.054;2022-11-15T08:37:04;100611.22;;;7.97;100.00
48824;BME280;34640;53.590;10.054;2022-11-15T08:39:39;100613.13;;;8.00;100.00
48824;BME280;34640;53.590;10.054;2022-11-15T08:42:12;100618.66;;;8.05;100.00
48824;BME280;34640;53.590;10.054;2022-11-15T08:44:53;100614.47;;;8.07;100.00
48824;BME280;34640;53.590;10.054;2022-11-15T08:47:26;100615.97;;;8.16;100.00
48824;BME280;34640;53.590;10.054;2022-11-15T08:50:00;100612.88;;;8.22;100.00
48824;BME280;34640;53.590;10.054;2022-11-15T08:52:34;100623.94;;;8.19;100.00
48824;BME280;34640;53.590;10.054;2022-11-15T08:55:08;100630.44;;;8.13;100.00
48824;BME280;34640;53.590;10.054;2022-11-15T08:57:42;100632.53;;;8.18;100.00
48824;BME280;34640;53.590;10.054;2022-11-15T09:00:18;100636.13;;;8.20;100.00
48824;BME280;34640;53.590;10.054;2022-11-15T09:02:53;100636.66;;;8.28;100.00
48824;BME280;34640;53.590;10.054;2022-11-15T09:05:26;100623.78;;;8.30;100.00
48824;BME280;34640;53.590;10.054;2022-11-15T09:08:00;100616.00;;;8.30;100.00
48824;BME280;34640;53.590;10.054;2022-11-15T09:10:54;100618.72;;;8.44;100.00
48824;BME280;34640;53.590;10.054;2022-11-15T09:13:28;100620.53;;;8.58;100.00
48824;BME280;34640;53.590;10.054;2022-11-15T09:16:04;100628.91;;;8.54;100.00
48824;BME280;34640;53.590;10.054;2022-11-15T09:18:38;100625.50;;;8.55;100.00
48824;BME280;34640;53.590;10.054;2022-11-15T09:21:11;100631.50;;;8.54;100.00
48824;BME280;34640;53.590;10.054;2022-11-15T09:23:45;100626.91;;;8.64;100.00
48824;BME280;34640;53.590;10.054;2022-11-15T09:26:19;100621.91;;;8.67;100.00
48824;BME280;34640;53.590;10.054;2022-11-15T09:28:53;100622.22;;;8.71;100.00
48824;BME280;34640;53.590;10.054;2022-11-15T09:31:28;100623.00;;;8.83;100.00
48824;BME280;34640;53.590;10.054;2022-11-15T09:34:02;100626.69;;;8.87;100.00
48824;BME280;34640;53.590;10.054;2022-11-15T09:36:36;100625.41;;;8.94;100.00
48824;BME280;34640;53.590;10.054;2022-11-15T09:39:10;100623.09;;;8.98;100.00
48824;BME280;34640;53.590;10.054;2022-11-15T09:42:03;100624.25;;;9.16;100.00
48824;BME280;34640;53.590;10.054;2022-11-15T09:44:48;100610.38;;;9.16;100.00
48824;BME280;34640;53.590;10.054;2022-11-15T09:47:41;100620.00;;;9.32;100.00
48824;BME280;34640;53.590;10.054;2022-11-15T09:50:31;100624.16;;;9.43;100.00
48824;BME280;34640;53.590;10.054;2022-11-15T09:53:11;100632.44;;;9.50;100.00
48824;BME280;34640;53.590;10.054;2022-11-15T09:55:51;100632.59;;;9.54;100.00
48824;BME280;34640;53.590;10.054;2022-11-15T09:58:34;100640.53;;;9.55;100.00
48824;BME280;34640;53.590;10.054;2022-11-15T10:01:15;100640.91;;;9.61;100.00
48824;BME280;34640;53.590;10.054;2022-11-15T10:03:56;100635.53;;;9.73;100.00
48824;BME280;34640;53.590;10.054;2022-11-15T10:06:34;100625.88;;;9.85;100.00
48824;BME280;34640;53.590;10.054;2022-11-15T10:09:15;100631.63;;;9.94;100.00
48824;BME280;34640;53.590;10.054;2022-11-15T10:11:55;100631.22;;;10.01;100.00
48824;BME280;34640;53.590;10.054;2022-11-15T10:14:30;100628.97;;;10.07;100.00
48824;BME280;34640;53.590;10.054;2022-11-15T10:17:39;100627.25;;;10.08;100.00
48824;BME280;34640;53.590;10.054;2022-11-15T10:20:19;100619.63;;;10.11;100.00
48824;BME280;34640;53.590;10.054;2022-11-15T10:22:56;100617.28;;;10.16;100.00
48824;BME280;34640;53.590;10.054;2022-11-15T10:25:33;100619.88;;;10.16;100.00
48824;BME280;34640;53.590;10.054;2022-11-15T10:28:13;100617.47;;;10.19;100.00
48824;BME280;34640;53.590;10.054;2022-11-15T10:30:49;100612.69;;;10.25;100.00
48824;BME280;34640;53.590;10.054;2022-11-15T10:33:26;100598.31;;;10.31;100.00
48824;BME280;34640;53.590;10.054;2022-11-15T10:36:20;100596.94;;;10.38;100.00
48824;BME280;34640;53.590;10.054;2022-11-15T10:38:56;100593.91;;;10.45;100.00
48824;BME280;34640;53.590;10.054;2022-11-15T10:41:41;100584.31;;;10.44;100.00
48824;BME280;34640;53.590;10.054;2022-11-15T10:44:21;100580.25;;;10.49;100.00
48824;BME280;34640;53.590;10.054;2022-11-15T10:47:20;100584.91;;;10.55;100.00
48824;BME280;34640;53.590;10.054;2022-11-15T10:50:00;100588.84;;;10.63;100.00
48824;BME280;34640;53.590;10.054;2022-11-15T10:52:36;100583.44;;;10.60;100.00
48824;BME280;34640;53.590;10.054;2022-11-15T10:55:24;100573.31;;;10.64;100.00
48824;BME280;34640;53.590;10.054;2022-11-15T10:58:03;100574.63;;;10.73;100.00
48824;BME280;34640;53.590;10.054;2022-11-15T11:00:38;100577.22;;;10.73;100.00
48824;BME280;34640;53.590;10.054;2022-11-15T11:03:28;100568.34;;;10.69;100.00
48824;BME280;34640;53.590;10.054;2022-11-15T11:06:04;100561.69;;;10.74;100.00
48824;BME280;34640;53.590;10.054;2022-11-15T11:08:54;100567.06;;;10.77;100.00
48824;BME280;34640;53.590;10.054;2022-11-15T11:11:44;100555.25;;;10.84;100.00
48824;BME280;34640;53.590;10.054;2022-11-15T11:14:21;100556.28;;;10.86;100.00
48824;BME280;34640;53.590;10.054;2022-11-15T11:17:03;100555.13;;;10.97;100.00
48824;BME280;34640;53.590;10.054;2022-11-15T11:19:48;100556.72;;;11.10;100.00
48824;BME280;34640;53.590;10.054;2022-11-15T11:22:27;100552.56;;;11.13;100.00
48824;BME280;34640;53.590;10.054;2022-11-15T11:25:16;100548.78;;;11.24;100.00
48824;BME280;34640;53.590;10.054;2022-11-15T11:27:59;100546.03;;;11.21;100.00
48824;BME280;34640;53.590;10.054;2022-11-15T11:30:45;100553.84;;;11.21;100.00
48824;BME280;34640;53.590;10.054;2022-11-15T11:33:24;100547.97;;;11.25;100.00
48824;BME280;34640;53.590;10.054;2022-11-15T11:36:11;100540.75;;;11.36;100.00
48824;BME280;34640;53.590;10.054;2022-11-15T11:38:56;100542.03;;;11.44;100.00
48824;BME280;34640;53.590;10.054;2022-11-15T11:41:43;100537.63;;;11.43;100.00
48824;BME280;34640;53.590;10.054;2022-11-15T11:44:30;100539.34;;;11.43;100.00
48824;BME280;34640;53.590;10.054;2022-11-15T11:47:09;100533.31;;;11.44;100.00
48824;BME280;34640;53.590;10.054;2022-11-15T11:49:46;100527.63;;;11.51;100.00
48824;BME280;34640;53.590;10.054;2022-11-15T11:52:23;100527.94;;;11.41;100.00
48824;BME280;34640;53.590;10.054;2022-11-15T11:55:05;100530.03;;;11.48;100.00
48824;BME280;34640;53.590;10.054;2022-11-15T11:57:52;100525.84;;;11.50;100.00
48824;BME280;34640;53.590;10.054;2022-11-15T12:00:27;100523.38;;;11.53;100.00
48824;BME280;34640;53.590;10.054;2022-11-15T12:03:07;100527.03;;;11.56;100.00
48824;BME280;34640;53.590;10.054;2022-11-15T12:05:44;100526.38;;;11.60;100.00
48824;BME280;34640;53.590;10.054;2022-11-15T12:08:28;100519.28;;;11.58;100.00
48824;BME280;34640;53.590;10.054;2022-11-15T12:11:10;100517.00;;;11.64;100.00
48824;BME280;34640;53.590;10.054;2022-11-15T12:13:50;100506.88;;;11.70;100.00
48824;BME280;34640;53.590;10.054;2022-11-15T12:16:29;100513.25;;;11.75;100.00
48824;BME280;34640;53.590;10.054;2022-11-15T12:19:04;100508.91;;;11.76;100.00
48824;BME280;34640;53.590;10.054;2022-11-15T12:21:44;100499.72;;;11.82;100.00
48824;BME280;34640;53.590;10.054;2022-11-15T12:24:24;100496.56;;;11.89;100.00
48824;BME280;34640;53.590;10.054;2022-11-15T12:27:02;100492.66;;;11.98;100.00
48824;BME280;34640;53.590;10.054;2022-11-15T12:29:42;100495.25;;;11.98;100.00
48824;BME280;34640;53.590;10.054;2022-11-15T12:32:24;100503.09;;;11.98;100.00
48824;BME280;34640;53.590;10.054;2022-11-15T12:35:00;100492.72;;;11.99;100.00
48824;BME280;34640;53.590;10.054;2022-11-15T12:37:53;100496.59;;;12.07;100.00
48824;BME280;34640;53.590;10.054;2022-11-15T12:40:35;100500.38;;;12.14;100.00
48824;BME280;34640;53.590;10.054;2022-11-15T12:46:20;100493.72;;;12.19;100.00
48824;BME280;34640;53.590;10.054;2022-11-15T12:48:57;100493.84;;;12.22;100.00
48824;BME280;34640;53.590;10.054;2022-11-15T12:52:06;100495.72;;;12.24;100.00
48824;BME280;34640;53.590;10.054;2022-11-15T12:54:59;100477.44;;;12.24;100.00
48824;BME280;34640;53.590;10.054;2022-11-15T12:57:41;100469.81;;;12.29;100.00
48824;BME280;34640;53.590;10.054;2022-11-15T13:00:44;100470.63;;;12.28;100.00
48824;BME280;34640;53.590;10.054;2022-11-15T13:03:24;100475.72;;;12.25;100.00
48824;BME280;34640;53.590;10.054;2022-11-15T13:06:04;100472.28;;;12.26;100.00
48824;BME280;34640;53.590;10.054;2022-11-15T13:08:41;100477.50;;;12.26;100.00
48824;BME280;34640;53.590;10.054;2022-11-15T13:11:50;100466.78;;;12.20;100.00
48824;BME280;34640;53.590;10.054;2022-11-15T13:14:58;100467.81;;;12.23;100.00
48824;BME280;34640;53.590;10.054;2022-11-15T13:17:34;100465.13;;;12.22;100.00
48824;BME280;34640;53.590;10.054;2022-11-15T13:20:20;100467.06;;;12.26;100.00
48824;BME280;34640;53.590;10.054;2022-11-15T13:23:02;100454.75;;;12.23;100.00
48824;BME280;34640;53.590;10.054;2022-11-15T13:25:57;100444.78;;;12.15;100.00
48824;BME280;34640;53.590;10.054;2022-11-15T13:28:37;100452.00;;;12.20;100.00
48824;BME280;34640;53.590;10.054;2022-11-15T13:31:23;100450.00;;;12.15;100.00
48824;BME280;34640;53.590;10.054;2022-11-15T13:34:01;100436.97;;;12.15;100.00
48824;BME280;34640;53.590;10.054;2022-11-15T13:36:57;100435.88;;;12.11;100.00